sensor_id;sensor_type;location;lat;lon;timestamp;pressure;altitude;pressure_sealevel;temperature;humidity
54872;BME280;43914;57.680;11.982;2022-08-19T00:00:29;100376.84;;;17.98;100.00
54872;BME280;43914;57.680;11.982;2022-08-19T00:02:55;100381.22;;;17.99;100.00
54872;BME280;43914;57.680;11.982;2022-08-19T00:05:22;100374.65;;;17.97;100.00
54872;BME280;43914;57.680;11.982;2022-08-19T00:07:48;100366.40;;;17.92;100.00
54872;BME280;43914;57.680;11.982;2022-08-19T00:10:16;100371.64;;;17.96;100.00
54872;BME280;43914;57.680;11.982;2022-08-19T00:12:43;100365.42;;;17.98;100.00
54872;BME280;43914;57.680;11.982;2022-08-19T00:15:11;100367.04;;;17.97;100.00
54872;BME280;43914;57.680;11.982;2022-08-19T00:17:41;100357.98;;;17.94;100.00
54872;BME280;43914;57.680;11.982;2022-08-19T00:20:11;100362.06;;;17.94;100.00
54872;BME280;43914;57.680;11.982;2022-08-19T00:22:39;100368.83;;;17.91;100.00
54872;BME280;43914;57.680;11.982;2022-08-19T00:25:07;100373.69;;;17.89;100.00
54872;BME280;43914;57.680;11.982;2022-08-19T00:27:33;100379.15;;;17.92;100.00
54872;BME280;43914;57.680;11.982;2022-08-19T00:30:00;100378.38;;;17.94;100.00
54872;BME280;43914;57.680;11.982;2022-08-19T00:32:28;100364.26;;;17.94;100.00
54872;BME280;43914;57.680;11.982;2022-08-19T00:34:54;100361.31;;;17.96;100.00
54872;BME280;43914;57.680;11.982;2022-08-19T00:37:23;100353.16;;;17.96;100.00
54872;BME280;43914;57.680;11.982;2022-08-19T00:39:52;100355.81;;;17.93;100.00
54872;BME280;43914;57.680;11.982;2022-08-19T00:42:19;100360.09;;;17.89;100.00
54872;BME280;43914;57.680;11.982;2022-08-19T00:44:46;100361.16;;;17.88;100.00
54872;BME280;43914;57.680;11.982;2022-08-19T00:47:12;100370.13;;;17.88;100.00
54872;BME280;43914;57.680;11.982;2022-08-19T00:49:45;100370.13;;;17.88;100.00
54872;BME280;43914;57.680;11.982;2022-08-19T00:52:22;100369.31;;;17.88;100.00
54872;BME280;43914;57.680;11.982;2022-08-19T00:54:55;100376.11;;;17.88;100.00
54872;BME280;43914;57.680;11.982;2022-08-19T00:57:26;100376.41;;;17.89;100.00
54872;BME280;43914;57.680;11.982;2022-08-19T00:59:58;100373.42;;;17.91;100.00
54872;BME280;43914;57.680;11.982;2022-08-19T01:02:25;100377.02;;;17.94;100.00
54872;BME280;43914;57.680;11.982;2022-08-19T01:04:52;100379.44;;;17.93;100.00
54872;BME280;43914;57.680;11.982;2022-08-19T01:07:19;100379.44;;;17.93;100.00
54872;BME280;43914;57.680;11.982;2022-08-19T01:09:45;100379.70;;;17.91;100.00
54872;BME280;43914;57.680;11.982;2022-08-19T01:12:13;100375.36;;;17.93;100.00
54872;BME280;43914;57.680;11.982;2022-08-19T01:14:39;100374.61;;;17.95;100.00
54872;BME280;43914;57.680;11.982;2022-08-19T01:17:08;100374.65;;;17.97;100.00
54872;BME280;43914;57.680;11.982;2022-08-19T01:19:37;100376.06;;;18.00;100.00
54872;BME280;43914;57.680;11.982;2022-08-19T01:24:43;100378.04;;;18.02;100.00
54872;BME280;43914;57.680;11.982;2022-08-19T01:27:09;100371.76;;;18.01;100.00
54872;BME280;43914;57.680;11.982;2022-08-19T01:29:37;100371.82;;;18.04;100.00
54872;BME280;43914;57.680;11.982;2022-08-19T01:32:06;100365.05;;;18.07;100.00
54872;BME280;43914;57.680;11.982;2022-08-19T01:34:33;100363.95;;;18.05;100.00
54872;BME280;43914;57.680;11.982;2022-08-19T01:36:59;100362.59;;;18.05;100.00
54872;BME280;43914;57.680;11.982;2022-08-19T01:39:28;100353.08;;;18.05;100.00
54872;BME280;43914;57.680;11.982;2022-08-19T01:41:54;100359.03;;;18.05;100.00
54872;BME280;43914;57.680;11.982;2022-08-19T01:44:20;100356.38;;;18.07;100.00
54872;BME280;43914;57.680;11.982;2022-08-19T01:46:49;100353.36;;;18.06;100.00
54872;BME280;43914;57.680;11.982;2022-08-19T01:49:18;100359.00;;;18.02;100.00
54872;BME280;43914;57.680;11.982;2022-08-19T01:51:46;100361.89;;;17.98;100.00
54872;BME280;43914;57.680;11.982;2022-08-19T01:54:14;100368.11;;;17.96;100.00
54872;BME280;43914;57.680;11.982;2022-08-19T01:56:41;100364.55;;;17.95;100.00
54872;BME280;43914;57.680;11.982;2022-08-19T01:59:16;100368.34;;;17.94;100.00
54872;BME280;43914;57.680;11.982;2022-08-19T02:01:43;100362.90;;;17.94;100.00
54872;BME280;43914;57.680;11.982;2022-08-19T02:04:09;100357.11;;;17.91;100.00
54872;BME280;43914;57.680;11.982;2022-08-19T02:06:35;100348.34;;;17.86;100.00
54872;BME280;43914;57.680;11.982;2022-08-19T02:09:03;100355.86;;;17.81;100.00
54872;BME280;43914;57.680;11.982;2022-08-19T02:11:32;100351.39;;;17.75;100.00
54872;BME280;43914;57.680;11.982;2022-08-19T02:14:03;100363.34;;;17.74;100.00
54872;BME280;43914;57.680;11.982;2022-08-19T02:16:31;100367.90;;;17.71;100.00
54872;BME280;43914;57.680;11.982;2022-08-19T02:18:58;100367.61;;;17.70;100.00
54872;BME280;43914;57.680;11.982;2022-08-19T02:21:28;100367.05;;;17.70;100.00
54872;BME280;43914;57.680;11.982;2022-08-19T02:23:54;100366.54;;;17.71;100.00
54872;BME280;43914;57.680;11.982;2022-08-19T02:26:21;100362.20;;;17.72;100.00
54872;BME280;43914;57.680;11.982;2022-08-19T02:28:47;100359.20;;;17.71;100.00
54872;BME280;43914;57.680;11.982;2022-08-19T02:31:16;100364.41;;;17.73;100.00
54872;BME280;43914;57.680;11.982;2022-08-19T02:33:45;100364.62;;;17.71;100.00
54872;BME280;43914;57.680;11.982;2022-08-19T02:36:13;100362.69;;;17.69;100.00
54872;BME280;43914;57.680;11.982;2022-08-19T02:38:40;100364.89;;;17.70;100.00
54872;BME280;43914;57.680;11.982;2022-08-19T02:41:14;100357.80;;;17.69;100.00
54872;BME280;43914;57.680;11.982;2022-08-19T02:43:41;100356.45;;;17.69;100.00
54872;BME280;43914;57.680;11.982;2022-08-19T02:46:19;100359.64;;;17.66;100.00
54872;BME280;43914;57.680;11.982;2022-08-19T02:48:49;100363.17;;;17.66;100.00
54872;BME280;43914;57.680;11.982;2022-08-19T02:51:22;100365.89;;;17.66;100.00
54872;BME280;43914;57.680;11.982;2022-08-19T02:53:58;100367.02;;;17.68;100.00
54872;BME280;43914;57.680;11.982;2022-08-19T02:56:22;100361.59;;;17.68;100.00
54872;BME280;43914;57.680;11.982;2022-08-19T02:58:50;100364.02;;;17.67;100.00
54872;BME280;43914;57.680;11.982;2022-08-19T03:01:22;100368.38;;;17.68;100.00
54872;BME280;43914;57.680;11.982;2022-08-19T03:03:50;100369.77;;;17.70;100.00
54872;BME280;43914;57.680;11.982;2022-08-19T03:06:17;100361.59;;;17.68;100.00
54872;BME280;43914;57.680;11.982;2022-08-19T03:08:45;100359.64;;;17.66;100.00
54872;BME280;43914;57.680;11.982;2022-08-19T03:11:27;100355.86;;;17.67;100.00
54872;BME280;43914;57.680;11.982;2022-08-19T03:13:55;100357.45;;;17.65;100.00
54872;BME280;43914;57.680;11.982;2022-08-19T03:16:25;100361.17;;;17.62;100.00
54872;BME280;43914;57.680;11.982;2022-08-19T03:18:55;100367.16;;;17.61;100.00
54872;BME280;43914;57.680;11.982;2022-08-19T03:21:25;100360.94;;;17.63;100.00
54872;BME280;43914;57.680;11.982;2022-08-19T03:24:00;100356.34;;;17.64;100.00
54872;BME280;43914;57.680;11.982;2022-08-19T03:26:28;100354.38;;;17.62;100.00
54872;BME280;43914;57.680;11.982;2022-08-19T03:28:55;100351.66;;;17.62;100.00
54872;BME280;43914;57.680;11.982;2022-08-19T03:31:22;100348.48;;;17.65;100.00
54872;BME280;43914;57.680;11.982;2022-08-19T03:33:50;100343.34;;;17.66;100.00
54872;BME280;43914;57.680;11.982;2022-08-19T03:36:21;100339.84;;;17.68;100.00
54872;BME280;43914;57.680;11.982;2022-08-19T03:38:52;100340.62;;;17.66;100.00
54872;BME280;43914;57.680;11.982;2022-08-19T03:41:24;100342.14;;;17.62;100.00
54872;BME280;43914;57.680;11.982;2022-08-19T03:43:52;100338.63;;;17.61;100.00
54872;BME280;43914;57.680;11.982;2022-08-19T03:46:28;100343.50;;;17.62;100.00
54872;BME280;43914;57.680;11.982;2022-08-19T03:48:56;100344.34;;;17.62;100.00
54872;BME280;43914;57.680;11.982;2022-08-19T03:51:28;100340.56;;;17.63;100.00
54872;BME280;43914;57.680;11.982;2022-08-19T03:53:57;100339.72;;;17.63;100.00
54872;BME280;43914;57.680;11.982;2022-08-19T03:56:25;100347.88;;;17.63;100.00
54872;BME280;43914;57.680;11.982;2022-08-19T03:58:53;100344.86;;;17.62;100.00
54872;BME280;43914;57.680;11.982;2022-08-19T04:01:23;100347.26;;;17.58;100.00
54872;BME280;43914;57.680;11.982;2022-08-19T04:03:52;100355.70;;;17.59;100.00
54872;BME280;43914;57.680;11.982;2022-08-19T04:06:22;100358.42;;;17.59;100.00
54872;BME280;43914;57.680;11.982;2022-08-19T04:08:51;100357.09;;;17.62;100.00
54872;BME280;43914;57.680;11.982;2022-08-19T04:11:27;100360.16;;;17.65;100.00
54872;BME280;43914;57.680;11.982;2022-08-19T04:13:51;100357.73;;;17.66;100.00
54872;BME280;43914;57.680;11.982;2022-08-19T04:16:19;100359.06;;;17.64;100.00
54872;BME280;43914;57.680;11.982;2022-08-19T04:18:46;100351.33;;;17.58;100.00
54872;BME280;43914;57.680;11.982;2022-08-19T04:21:19;100352.34;;;17.54;100.00
54872;BME280;43914;57.680;11.982;2022-08-19T04:23:47;100357.28;;;17.57;100.00
54872;BME280;43914;57.680;11.982;2022-08-19T04:26:15;100357.58;;;17.58;100.00
54872;BME280;43914;57.680;11.982;2022-08-19T04:28:44;100359.09;;;17.52;100.00
54872;BME280;43914;57.680;11.982;2022-08-19T04:31:22;100351.95;;;17.48;100.00
54872;BME280;43914;57.680;11.982;2022-08-19T04:33:50;100362.23;;;17.46;100.00
54872;BME280;43914;57.680;11.982;2022-08-19T04:36:28;100361.09;;;17.44;100.00
54872;BME280;43914;57.680;11.982;2022-08-19T04:38:59;100356.02;;;17.48;100.00
54872;BME280;43914;57.680;11.982;2022-08-19T04:41:27;100353.30;;;17.48;100.00
54872;BME280;43914;57.680;11.982;2022-08-19T04:44:12;100353.08;;;17.50;100.00
54872;BME280;43914;57.680;11.982;2022-08-19T04:46:39;100356.12;;;17.53;100.00
54872;BME280;43914;57.680;11.982;2022-08-19T04:49:06;100351.23;;;17.53;100.00
54872;BME280;43914;57.680;11.982;2022-08-19T04:51:34;100352.34;;;17.54;100.00
54872;BME280;43914;57.680;11.982;2022-08-19T04:54:03;100355.89;;;17.55;100.00
54872;BME280;43914;57.680;11.982;2022-08-19T04:56:31;100361.07;;;17.56;100.00
54872;BME280;43914;57.680;11.982;2022-08-19T04:58:57;100362.49;;;17.59;100.00
54872;BME280;43914;57.680;11.982;2022-08-19T05:01:30;100366.89;;;17.63;100.00
54872;BME280;43914;57.680;11.982;2022-08-19T05:03:55;100361.78;;;17.64;100.00
54872;BME280;43914;57.680;11.982;2022-08-19T05:06:22;100367.25;;;17.66;100.00
54872;BME280;43914;57.680;11.982;2022-08-19T05:08:49;100370.03;;;17.69;100.00
54872;BME280;43914;57.680;11.982;2022-08-19T05:11:22;100370.03;;;17.69;100.00
54872;BME280;43914;57.680;11.982;2022-08-19T05:13:47;100372.55;;;17.73;100.00
54872;BME280;43914;57.680;11.982;2022-08-19T05:16:17;100369.58;;;17.74;100.00
54872;BME280;43914;57.680;11.982;2022-08-19T05:18:45;100368.09;;;17.81;100.00
54872;BME280;43914;57.680;11.982;2022-08-19T05:21:18;100369.55;;;17.86;100.00
54872;BME280;43914;57.680;11.982;2022-08-19T05:24:05;100373.71;;;17.92;100.00
54872;BME280;43914;57.680;11.982;2022-08-19T05:26:36;100373.25;;;17.95;100.00
54872;BME280;43914;57.680;11.982;2022-08-19T05:29:04;100371.34;;;17.95;100.00
54872;BME280;43914;57.680;11.982;2022-08-19T05:31:31;100368.69;;;17.98;100.00
54872;BME280;43914;57.680;11.982;2022-08-19T05:33:57;100363.77;;;17.97;100.00
54872;BME280;43914;57.680;11.982;2022-08-19T05:36:29;100371.70;;;17.99;100.00
54872;BME280;43914;57.680;11.982;2022-08-19T05:38:58;100373.67;;;18.01;100.00
54872;BME280;43914;57.680;11.982;2022-08-19T05:41:24;100371.76;;;18.01;100.00
54872;BME280;43914;57.680;11.982;2022-08-19T05:43:51;100376.42;;;18.03;100.00
54872;BME280;43914;57.680;11.982;2022-08-19T05:46:18;100380.56;;;18.06;100.00
54872;BME280;43914;57.680;11.982;2022-08-19T05:48:45;100383.02;;;18.08;100.00
54872;BME280;43914;57.680;11.982;2022-08-19T05:51:12;100378.70;;;18.09;100.00
54872;BME280;43914;57.680;11.982;2022-08-19T05:53:38;100393.44;;;18.11;100.00
54872;BME280;43914;57.680;11.982;2022-08-19T05:56:05;100389.58;;;18.09;100.00
54872;BME280;43914;57.680;11.982;2022-08-19T05:58:33;100382.30;;;18.12;100.00
54872;BME280;43914;57.680;11.982;2022-08-19T06:01:00;100373.13;;;18.16;100.00
54872;BME280;43914;57.680;11.982;2022-08-19T06:03:28;100374.86;;;18.22;100.00
54872;BME280;43914;57.680;11.982;2022-08-19T06:05:54;100381.17;;;18.25;100.00
54872;BME280;43914;57.680;11.982;2022-08-19T06:08:20;100383.66;;;18.27;100.00
54872;BME280;43914;57.680;11.982;2022-08-19T06:10:46;100385.34;;;18.30;100.00
54872;BME280;43914;57.680;11.982;2022-08-19T06:13:11;100391.62;;;18.31;100.00
54872;BME280;43914;57.680;11.982;2022-08-19T06:15:37;100384.55;;;18.33;100.00
54872;BME280;43914;57.680;11.982;2022-08-19T06:18:03;100381.69;;;18.39;100.00
54872;BME280;43914;57.680;11.982;2022-08-19T06:20:29;100381.05;;;18.49;100.00
54872;BME280;43914;57.680;11.982;2022-08-19T06:22:55;100381.12;;;18.71;100.00
54872;BME280;43914;57.680;11.982;2022-08-19T06:25:21;100379.18;;;18.86;100.00
54872;BME280;43914;57.680;11.982;2022-08-19T06:27:47;100374.31;;;19.06;100.00
54872;BME280;43914;57.680;11.982;2022-08-19T06:30:13;100369.69;;;19.26;100.00
54872;BME280;43914;57.680;11.982;2022-08-19T06:32:40;100357.76;;;19.29;100.00
54872;BME280;43914;57.680;11.982;2022-08-19T06:35:06;100358.84;;;19.28;100.00
54872;BME280;43914;57.680;11.982;2022-08-19T06:37:32;100363.03;;;19.36;100.00
54872;BME280;43914;57.680;11.982;2022-08-19T06:39:59;100362.82;;;19.43;100.00
54872;BME280;43914;57.680;11.982;2022-08-19T06:42:24;100367.98;;;19.42;100.00
54872;BME280;43914;57.680;11.982;2022-08-19T06:44:50;100370.19;;;19.42;100.00
54872;BME280;43914;57.680;11.982;2022-08-19T06:47:19;100361.68;;;19.39;100.00
54872;BME280;43914;57.680;11.982;2022-08-19T06:49:46;100354.70;;;19.48;100.00
54872;BME280;43914;57.680;11.982;2022-08-19T06:52:12;100366.30;;;19.83;100.00
54872;BME280;43914;57.680;11.982;2022-08-19T06:54:41;100368.36;;;19.95;100.00
54872;BME280;43914;57.680;11.982;2022-08-19T06:57:08;100374.00;;;19.88;97.54
54872;BME280;43914;57.680;11.982;2022-08-19T06:59:35;100376.07;;;19.79;97.94
54872;BME280;43914;57.680;11.982;2022-08-19T07:02:04;100374.89;;;19.72;97.68
54872;BME280;43914;57.680;11.982;2022-08-19T07:04:33;100375.41;;;19.69;97.86
54872;BME280;43914;57.680;11.982;2022-08-19T07:07:04;100378.08;;;19.64;97.77
54872;BME280;43914;57.680;11.982;2022-08-19T07:09:34;100378.88;;;19.61;98.37
54872;BME280;43914;57.680;11.982;2022-08-19T07:12:03;100378.88;;;19.61;98.45
54872;BME280;43914;57.680;11.982;2022-08-19T07:14:32;100377.80;;;19.63;98.62
54872;BME280;43914;57.680;11.982;2022-08-19T07:17:00;100380.29;;;19.67;98.54
54872;BME280;43914;57.680;11.982;2022-08-19T07:19:28;100378.93;;;19.67;98.39
54872;BME280;43914;57.680;11.982;2022-08-19T07:21:54;100387.02;;;19.81;100.00
54872;BME280;43914;57.680;11.982;2022-08-19T07:24:23;100399.95;;;20.13;100.00
54872;BME280;43914;57.680;11.982;2022-08-19T07:26:52;100398.20;;;20.32;97.55
54872;BME280;43914;57.680;11.982;2022-08-19T07:29:20;100396.47;;;20.51;98.86
54872;BME280;43914;57.680;11.982;2022-08-19T07:31:49;100392.84;;;20.75;96.97
54872;BME280;43914;57.680;11.982;2022-08-19T07:34:16;100401.94;;;20.83;94.84
54872;BME280;43914;57.680;11.982;2022-08-19T07:36:43;100402.36;;;20.72;93.33
54872;BME280;43914;57.680;11.982;2022-08-19T07:39:12;100401.24;;;20.68;94.00
54872;BME280;43914;57.680;11.982;2022-08-19T07:41:40;100405.93;;;20.73;93.48
54872;BME280;43914;57.680;11.982;2022-08-19T07:44:08;100410.69;;;20.85;94.58
54872;BME280;43914;57.680;11.982;2022-08-19T07:46:37;100416.00;;;21.00;94.16
54872;BME280;43914;57.680;11.982;2022-08-19T07:49:05;100412.27;;;21.14;92.95
54872;BME280;43914;57.680;11.982;2022-08-19T07:51:35;100413.41;;;21.23;91.94
54872;BME280;43914;57.680;11.982;2022-08-19T07:54:01;100418.06;;;21.25;91.81
54872;BME280;43914;57.680;11.982;2022-08-19T07:56:26;100411.52;;;21.26;90.23
54872;BME280;43914;57.680;11.982;2022-08-19T07:58:53;100423.25;;;21.24;90.71
54872;BME280;43914;57.680;11.982;2022-08-19T08:01:22;100416.98;;;21.26;90.13
54872;BME280;43914;57.680;11.982;2022-08-19T08:03:52;100418.84;;;21.18;89.57
54872;BME280;43914;57.680;11.982;2022-08-19T08:06:37;100413.86;;;21.07;89.93
54872;BME280;43914;57.680;11.982;2022-08-19T08:09:31;100413.83;;;21.04;91.80
54872;BME280;43914;57.680;11.982;2022-08-19T08:12:03;100421.30;;;21.17;92.31
54872;BME280;43914;57.680;11.982;2022-08-19T08:14:44;100421.10;;;21.31;90.43
54872;BME280;43914;57.680;11.982;2022-08-19T08:17:15;100424.64;;;21.29;90.29
54872;BME280;43914;57.680;11.982;2022-08-19T08:19:43;100423.03;;;21.31;89.93
54872;BME280;43914;57.680;11.982;2022-08-19T08:22:11;100421.66;;;21.31;89.50
54872;BME280;43914;57.680;11.982;2022-08-19T08:24:41;100426.04;;;21.32;89.91
54872;BME280;43914;57.680;11.982;2022-08-19T08:27:07;100432.03;;;21.31;89.44
54872;BME280;43914;57.680;11.982;2022-08-19T08:29:32;100423.30;;;21.34;89.59
54872;BME280;43914;57.680;11.982;2022-08-19T08:31:59;100425.73;;;21.28;88.84
54872;BME280;43914;57.680;11.982;2022-08-19T08:34:24;100429.00;;;21.25;88.95
54872;BME280;43914;57.680;11.982;2022-08-19T08:36:50;100424.90;;;21.25;89.23
54872;BME280;43914;57.680;11.982;2022-08-19T08:39:19;100424.09;;;21.27;88.99
54872;BME280;43914;57.680;11.982;2022-08-19T08:42:14;100415.89;;;21.27;88.61
54872;BME280;43914;57.680;11.982;2022-08-19T08:47:30;100403.34;;;21.31;89.32
54872;BME280;43914;57.680;11.982;2022-08-19T08:50:10;100409.97;;;21.41;89.57
54872;BME280;43914;57.680;11.982;2022-08-19T08:52:46;100415.73;;;21.50;88.83
54872;BME280;43914;57.680;11.982;2022-08-19T08:55:16;100418.46;;;21.50;88.15
54872;BME280;43914;57.680;11.982;2022-08-19T09:00:25;100429.73;;;21.56;87.05
54872;BME280;43914;57.680;11.982;2022-08-19T09:02:57;100426.23;;;21.66;87.46
54872;BME280;43914;57.680;11.982;2022-08-19T09:05:30;100429.35;;;21.90;87.60
54872;BME280;43914;57.680;11.982;2022-08-19T09:08:07;100437.63;;;22.18;87.29
54872;BME280;43914;57.680;11.982;2022-08-19T09:10:38;100436.86;;;22.41;86.13
54872;BME280;43914;57.680;11.982;2022-08-19T09:13:25;100445.95;;;22.52;84.23
54872;BME280;43914;57.680;11.982;2022-08-19T09:16:16;100442.38;;;22.62;83.68
54872;BME280;43914;57.680;11.982;2022-08-19T09:18:45;100454.18;;;22.65;83.22
54872;BME280;43914;57.680;11.982;2022-08-19T09:21:15;100441.58;;;22.64;82.35
54872;BME280;43914;57.680;11.982;2022-08-19T09:23:41;100445.14;;;22.67;82.74
54872;BME280;43914;57.680;11.982;2022-08-19T09:26:15;100445.95;;;22.73;82.45
54872;BME280;43914;57.680;11.982;2022-08-19T09:28:43;100441.02;;;22.77;81.86
54872;BME280;43914;57.680;11.982;2022-08-19T09:31:16;100454.73;;;22.72;81.06
54872;BME280;43914;57.680;11.982;2022-08-19T09:33:43;100450.62;;;22.72;80.92
54872;BME280;43914;57.680;11.982;2022-08-19T09:36:11;100446.77;;;22.76;80.84
54872;BME280;43914;57.680;11.982;2022-08-19T09:38:39;100454.73;;;22.85;80.92
54872;BME280;43914;57.680;11.982;2022-08-19T09:41:09;100450.87;;;22.89;80.70
54872;BME280;43914;57.680;11.982;2022-08-19T09:43:40;100448.70;;;23.01;80.78
54872;BME280;43914;57.680;11.982;2022-08-19T09:46:08;100449.23;;;23.16;80.71
54872;BME280;43914;57.680;11.982;2022-08-19T09:48:36;100445.95;;;23.27;80.60
54872;BME280;43914;57.680;11.982;2022-08-19T09:51:04;100443.17;;;23.38;79.49
54872;BME280;43914;57.680;11.982;2022-08-19T09:53:35;100441.52;;;23.39;78.53
54872;BME280;43914;57.680;11.982;2022-08-19T09:56:04;100449.47;;;23.41;77.74
54872;BME280;43914;57.680;11.982;2022-08-19T09:58:32;100449.20;;;23.40;77.64
54872;BME280;43914;57.680;11.982;2022-08-19T10:01:00;100448.38;;;23.44;77.61
54872;BME280;43914;57.680;11.982;2022-08-19T10:03:29;100446.69;;;23.51;77.28
54872;BME280;43914;57.680;11.982;2022-08-19T10:05:57;100448.61;;;23.58;77.28
54872;BME280;43914;57.680;11.982;2022-08-19T10:08:28;100452.97;;;23.62;76.59
54872;BME280;43914;57.680;11.982;2022-08-19T10:10:57;100457.63;;;23.67;76.32
54872;BME280;43914;57.680;11.982;2022-08-19T10:13:25;100451.02;;;23.73;76.03
54872;BME280;43914;57.680;11.982;2022-08-19T10:15:54;100452.07;;;23.85;76.51
54872;BME280;43914;57.680;11.982;2022-08-19T10:18:23;100451.51;;;23.90;75.44
54872;BME280;43914;57.680;11.982;2022-08-19T10:20:51;100447.09;;;23.95;75.12
54872;BME280;43914;57.680;11.982;2022-08-19T10:23:20;100449.27;;;23.95;74.91
54872;BME280;43914;57.680;11.982;2022-08-19T10:25:46;100443.81;;;23.90;74.47
54872;BME280;43914;57.680;11.982;2022-08-19T10:28:13;100443.30;;;23.83;74.63
54872;BME280;43914;57.680;11.982;2022-08-19T10:30:40;100445.21;;;23.85;75.07
54872;BME280;43914;57.680;11.982;2022-08-19T10:33:07;100452.34;;;23.83;74.36
54872;BME280;43914;57.680;11.982;2022-08-19T10:35:34;100451.02;;;23.73;74.15
54872;BME280;43914;57.680;11.982;2022-08-19T10:38:01;100452.97;;;23.62;74.03
54872;BME280;43914;57.680;11.982;2022-08-19T10:40:28;100446.70;;;23.56;74.57
54872;BME280;43914;57.680;11.982;2022-08-19T10:42:55;100439.55;;;23.55;74.78
54872;BME280;43914;57.680;11.982;2022-08-19T10:45:22;100442.03;;;23.59;74.98
54872;BME280;43914;57.680;11.982;2022-08-19T10:47:50;100432.94;;;23.64;75.09
54872;BME280;43914;57.680;11.982;2022-08-19T10:50:16;100430.17;;;23.69;75.10
54872;BME280;43914;57.680;11.982;2022-08-19T10:53:03;100430.14;;;23.77;75.13
54872;BME280;43914;57.680;11.982;2022-08-19T10:55:30;100432.30;;;23.88;75.49
54872;BME280;43914;57.680;11.982;2022-08-19T10:58:18;100436.38;;;23.96;74.91
54872;BME280;43914;57.680;11.982;2022-08-19T11:00:55;100430.33;;;24.06;74.48
54872;BME280;43914;57.680;11.982;2022-08-19T11:03:23;100430.79;;;24.16;73.68
54872;BME280;43914;57.680;11.982;2022-08-19T11:06:03;100436.28;;;24.16;73.36
54872;BME280;43914;57.680;11.982;2022-08-19T11:08:33;100435.94;;;24.28;73.45
54872;BME280;43914;57.680;11.982;2022-08-19T11:11:02;100438.02;;;24.49;73.71
54872;BME280;43914;57.680;11.982;2022-08-19T11:13:30;100436.83;;;24.58;73.25
54872;BME280;43914;57.680;11.982;2022-08-19T11:16:02;100429.38;;;24.64;72.59
54872;BME280;43914;57.680;11.982;2022-08-19T11:18:30;100428.84;;;24.62;72.52
54872;BME280;43914;57.680;11.982;2022-08-19T11:23:38;100422.50;;;24.64;71.01
54872;BME280;43914;57.680;11.982;2022-08-19T11:26:05;100421.13;;;24.67;71.52
54872;BME280;43914;57.680;11.982;2022-08-19T11:28:31;100408.65;;;24.80;71.89
54872;BME280;43914;57.680;11.982;2022-08-19T11:30:57;100415.06;;;25.02;71.25
54872;BME280;43914;57.680;11.982;2022-08-19T11:33:22;100412.39;;;25.21;70.88
54872;BME280;43914;57.680;11.982;2022-08-19T11:35:50;100408.34;;;25.38;70.11
54872;BME280;43914;57.680;11.982;2022-08-19T11:38:15;100414.23;;;25.55;69.32
54872;BME280;43914;57.680;11.982;2022-08-19T11:40:41;100410.28;;;25.64;68.90
54872;BME280;43914;57.680;11.982;2022-08-19T11:43:07;100407.67;;;25.73;68.76
54872;BME280;43914;57.680;11.982;2022-08-19T11:45:34;100397.84;;;25.88;68.58
54872;BME280;43914;57.680;11.982;2022-08-19T11:48:01;100398.55;;;25.97;67.64
54872;BME280;43914;57.680;11.982;2022-08-19T11:50:28;100406.19;;;26.02;67.67
54872;BME280;43914;57.680;11.982;2022-08-19T11:52:56;100404.55;;;26.01;66.60
54872;BME280;43914;57.680;11.982;2022-08-19T11:55:22;100404.84;;;26.00;66.87
54872;BME280;43914;57.680;11.982;2022-08-19T11:57:49;100402.00;;;25.86;66.04
54872;BME280;43914;57.680;11.982;2022-08-19T12:00:15;100400.95;;;25.82;66.64
54872;BME280;43914;57.680;11.982;2022-08-19T12:02:41;100399.81;;;25.85;67.19
54872;BME280;43914;57.680;11.982;2022-08-19T12:05:08;100398.12;;;25.87;66.97
54872;BME280;43914;57.680;11.982;2022-08-19T12:07:35;100403.61;;;25.89;66.80
54872;BME280;43914;57.680;11.982;2022-08-19T12:10:02;100407.14;;;25.92;66.80
54872;BME280;43914;57.680;11.982;2022-08-19T12:12:28;100406.36;;;25.89;66.34
54872;BME280;43914;57.680;11.982;2022-08-19T12:14:54;100407.58;;;25.81;65.89
54872;BME280;43914;57.680;11.982;2022-08-19T12:17:26;100408.43;;;25.78;66.32
54872;BME280;43914;57.680;11.982;2022-08-19T12:19:53;100406.77;;;25.80;66.57
54872;BME280;43914;57.680;11.982;2022-08-19T12:22:19;100409.66;;;25.89;67.04
54872;BME280;43914;57.680;11.982;2022-08-19T12:24:46;100408.45;;;25.98;66.83
54872;BME280;43914;57.680;11.982;2022-08-19T12:27:13;100409.20;;;26.03;65.87
54872;BME280;43914;57.680;11.982;2022-08-19T12:29:39;100411.64;;;26.05;65.67
54872;BME280;43914;57.680;11.982;2022-08-19T12:32:05;100404.31;;;25.98;65.43
54872;BME280;43914;57.680;11.982;2022-08-19T12:34:32;100399.81;;;25.85;65.30
54872;BME280;43914;57.680;11.982;2022-08-19T12:37:00;100399.37;;;25.78;65.77
54872;BME280;43914;57.680;11.982;2022-08-19T12:39:27;100392.80;;;25.74;65.74
54872;BME280;43914;57.680;11.982;2022-08-19T12:41:53;100392.80;;;25.74;66.70
54872;BME280;43914;57.680;11.982;2022-08-19T12:44:19;100392.53;;;25.73;66.48
54872;BME280;43914;57.680;11.982;2022-08-19T12:46:46;100389.31;;;25.68;66.71
54872;BME280;43914;57.680;11.982;2022-08-19T12:49:12;100385.47;;;25.67;66.72
54872;BME280;43914;57.680;11.982;2022-08-19T12:51:37;100383.56;;;25.64;66.77
54872;BME280;43914;57.680;11.982;2022-08-19T12:54:03;100389.64;;;25.64;66.59